This is the latest recevied weather packets stored in our database for station/object OE3EMC-13. If no packets are shown the sender has not sent any weather packets the latest 1 day(s).
| Time | Temp. | Humidity | Pressure | Rain* | Wind** | Luminosity | Snow |
|---|---|---|---|---|---|---|---|
| 1836274564 | 20.56° C | 38% | 1100 hPa | 0 mm | 1.79 m/s, 360° | - | - |
| 1836274414 | 20.56° C | 38% | 1100 hPa | 0 mm | 1.79 m/s, 360° | - | - |
| 1836273966 | 20.56° C | 38% | 1100 hPa | 0 mm | 1.79 m/s, 337° | - | - |
| 1778027590 | 10.56° C | 83% | 1100 hPa | 0 mm | 1.34 m/s, 135° | - | - |
| 1778026994 | 10.56° C | 83% | 1100 hPa | 0 mm | 1.34 m/s, 135° | - | - |
| 1778026395 | 11.11° C | 82% | 1100 hPa | 0 mm | 1.79 m/s, 112° | - | - |
| 1778025794 | 11.11° C | 82% | 1100 hPa | 0 mm | 1.79 m/s, 112° | - | - |
| 1778025194 | 10.56° C | 82% | 1100 hPa | 0 mm | 0.89 m/s, 135° | - | - |
| 1778024594 | 10.56° C | 82% | 1100 hPa | 0 mm | 0.89 m/s, 135° | - | - |
| 1778023994 | 10.56° C | 82% | 1100 hPa | 0 mm | 0.45 m/s, 67° | - | - |
| 1778023394 | 10.56° C | 82% | 1100 hPa | 0 mm | 0.45 m/s, 67° | - | - |
| 1778022793 | 10.56° C | 82% | 1100 hPa | 0 mm | 0.89 m/s, 22° | - | - |
| 1778022193 | 10.56° C | 82% | 1100 hPa | 0 mm | 0.89 m/s, 22° | - | - |
| 1778021594 | 10.56° C | 83% | 1100 hPa | 0 mm | 0.89 m/s, 360° | - | - |
| 1778020993 | 10.56° C | 83% | 1100 hPa | 0 mm | 0.89 m/s, 360° | - | - |
| 1778020392 | 10.56° C | 82% | 1100 hPa | 0 mm | 0.45 m/s, 337° | - | - |
| 1778019793 | 10.56° C | 82% | 1100 hPa | 0 mm | 0.45 m/s, 337° | - | - |
| 1778019192 | 11.11° C | 82% | 1100 hPa | 0 mm | 1.34 m/s, 45° | - | - |
| 1778018593 | 11.11° C | 82% | 1100 hPa | 0 mm | 1.34 m/s, 45° | - | - |
| 1778017993 | 11.67° C | 83% | 1100 hPa | 0 mm | 1.34 m/s, 45° | - | - |
| 1778017392 | 11.67° C | 83% | 1100 hPa | 0 mm | 1.34 m/s, 45° | - | - |
| 1778016792 | 12.22° C | 79% | 1100 hPa | 0 mm | 1.34 m/s, 337° | - | - |
| 1778016192 | 12.22° C | 79% | 1100 hPa | 0 mm | 1.34 m/s, 337° | - | - |
| 1778015591 | 12.78° C | 74% | 1100 hPa | 0 mm | 1.79 m/s, 67° | - | - |
| 1778014993 | 12.78° C | 74% | 1100 hPa | 0 mm | 1.79 m/s, 67° | - | - |
* Rain latest hour (hover to see other rain measurements)
** Current wind speed in m/s (hover to see current wind gust speed)